Time;durP1;ratioP1;P1;durP2;ratioP2;P2;SDS_P1;SDS_P2;PMS_P1;PMS_P2;Temp;Humidity;BMP_temperature;BMP_pressure;BME280_temperature;BME280_humidity;BME280_pressure;Samples;Min_cycle;Max_cycle;Signal;HPM_P1;HPM_P2
2024/01/24 00:01:58;;;;;;;28.27;7.40;;;9.80;87.40;;;;;;5042369;28;20067;-74
2024/01/24 00:04:24;;;;;;;32.87;8.03;;;9.90;87.40;;;;;;5043290;28;20080;-74
2024/01/24 00:06:50;;;;;;;37.13;7.53;;;10.00;87.30;;;;;;5005682;28;20059;-73
2024/01/24 00:09:16;;;;;;;30.23;7.20;;;10.00;87.20;;;;;;5039242;28;20499;-72
2024/01/24 00:11:42;;;;;;;39.47;8.20;;;10.00;87.20;;;;;;5040089;28;20045;-72
2024/01/24 00:14:08;;;;;;;33.40;6.87;;;10.10;87.00;;;;;;5037141;28;21239;-74
2024/01/24 00:16:34;;;;;;;29.13;6.93;;;10.10;86.70;;;;;;5043415;28;20655;-74
2024/01/24 00:19:00;;;;;;;34.63;6.83;;;10.10;86.60;;;;;;5043301;28;20049;-72
2024/01/24 00:21:25;;;;;;;39.80;7.87;;;10.20;86.60;;;;;;5040177;28;20492;-73
2024/01/24 00:23:51;;;;;;;32.70;7.30;;;10.20;86.40;;;;;;5034783;28;20048;-73
2024/01/24 00:26:17;;;;;;;28.83;6.83;;;10.20;86.30;;;;;;5042392;28;20144;-73
2024/01/24 00:28:43;;;;;;;25.23;5.93;;;10.20;86.20;;;;;;5048546;28;20092;-73
2024/01/24 00:31:09;;;;;;;34.67;7.07;;;10.20;86.20;;;;;;5047521;28;20154;-74
2024/01/24 00:33:35;;;;;;;32.13;6.70;;;10.30;86.20;;;;;;5051093;28;20452;-72
2024/01/24 00:36:00;;;;;;;31.63;6.93;;;10.40;86.20;;;;;;5039105;28;20061;-74
2024/01/24 00:38:26;;;;;;;27.40;6.50;;;10.40;86.10;;;;;;5047704;28;20056;-71
2024/01/24 00:40:52;;;;;;;24.97;6.17;;;10.40;85.90;;;;;;5037915;28;20073;-73
2024/01/24 00:43:17;;;;;;;26.93;5.83;;;10.50;85.70;;;;;;5022474;28;20041;-73
2024/01/24 00:45:43;;;;;;;30.10;6.77;;;10.50;85.80;;;;;;5029205;28;20053;-73
2024/01/24 00:48:09;;;;;;;32.17;6.27;;;10.50;85.80;;;;;;5029821;28;20071;-73
2024/01/24 00:50:34;;;;;;;24.37;6.20;;;10.50;85.70;;;;;;5047776;28;20057;-73
2024/01/24 00:53:06;;;;;;;25.27;6.47;;;10.50;85.60;;;;;;5047735;28;20041;-73
2024/01/24 00:55:32;;;;;;;30.50;6.80;;;10.60;85.50;;;;;;5046253;28;20098;-73
2024/01/24 00:57:58;;;;;;;35.90;6.57;;;10.60;85.50;;;;;;5030320;28;20151;-72
2024/01/24 01:00:24;;;;;;;30.37;6.93;;;10.60;85.50;;;;;;5042083;28;20048;-74
2024/01/24 01:02:50;;;;;;;28.50;6.70;;;10.60;85.60;;;;;;5025826;28;20077;-73
2024/01/24 01:05:16;;;;;;;32.97;6.93;;;10.60;86.00;;;;;;5046302;28;20523;-76
2024/01/24 01:07:41;;;;;;;24.80;5.57;;;10.50;86.40;;;;;;5023490;28;20531;-73
2024/01/24 01:10:09;;;;;;;27.83;6.27;;;10.50;86.70;;;;;;5045872;28;20098;-71
2024/01/24 01:12:34;;;;;;;32.33;6.13;;;10.40;86.90;;;;;;5029367;28;20123;-73
2024/01/24 01:15:00;;;;;;;32.27;7.17;;;10.40;87.00;;;;;;5047037;28;20570;-72
2024/01/24 01:17:26;;;;;;;30.67;6.73;;;10.40;86.80;;;;;;5035552;28;20073;-74
2024/01/24 01:19:51;;;;;;;26.07;6.10;;;10.40;87.00;;;;;;5046554;28;20424;-72
2024/01/24 01:22:18;;;;;;;30.27;6.27;;;10.40;86.90;;;;;;5043532;28;20095;-72
2024/01/24 01:24:44;;;;;;;26.73;5.40;;;10.50;86.70;;;;;;5020035;28;20372;-72
2024/01/24 01:27:09;;;;;;;26.67;6.03;;;10.50;86.60;;;;;;5041352;28;20081;-73
2024/01/24 01:29:35;;;;;;;27.03;6.27;;;10.50;86.50;;;;;;5045926;28;20049;-73
2024/01/24 01:32:01;;;;;;;20.07;5.30;;;10.50;86.40;;;;;;5040519;28;20053;-73
2024/01/24 01:34:27;;;;;;;22.00;5.27;;;10.60;86.00;;;;;;5048278;28;20048;-72
2024/01/24 01:36:52;;;;;;;23.33;4.90;;;10.60;85.80;;;;;;5033277;28;20053;-72
2024/01/24 01:39:18;;;;;;;29.10;5.80;;;10.70;85.70;;;;;;5041437;28;20470;-75
2024/01/24 01:41:48;;;;;;;26.13;5.60;;;10.70;85.50;;;;;;5026651;28;20087;-76
2024/01/24 01:44:15;;;;;;;27.30;5.60;;;10.70;85.40;;;;;;5046176;28;20450;-73
2024/01/24 01:46:42;;;;;;;27.33;5.53;;;10.70;85.40;;;;;;5038580;28;20085;-73
2024/01/24 01:49:07;;;;;;;27.90;5.70;;;10.80;85.00;;;;;;5028358;28;20435;-73
2024/01/24 01:51:34;;;;;;;20.70;4.43;;;10.80;84.80;;;;;;5045819;28;20051;-73
2024/01/24 01:54:00;;;;;;;22.43;4.67;;;10.90;84.60;;;;;;5046563;28;20103;-73
2024/01/24 01:56:27;;;;;;;21.67;4.90;;;11.00;84.00;;;;;;5027307;28;20057;-72
2024/01/24 01:58:52;;;;;;;20.37;4.50;;;11.00;84.00;;;;;;5045486;28;20091;-74
2024/01/24 02:01:19;;;;;;;23.33;4.43;;;11.00;83.90;;;;;;5034301;28;20065;-72
2024/01/24 02:03:48;;;;;;;23.57;4.33;;;11.00;83.70;;;;;;5045591;28;20052;-73
2024/01/24 02:06:14;;;;;;;19.13;4.37;;;11.00;83.80;;;;;;5045030;28;20064;-73
2024/01/24 02:08:40;;;;;;;21.07;4.87;;;11.00;83.50;;;;;;5043125;28;20057;-74
2024/01/24 02:11:06;;;;;;;19.47;4.53;;;11.10;83.20;;;;;;5046736;28;20543;-73
2024/01/24 02:13:32;;;;;;;20.53;4.03;;;11.10;82.90;;;;;;5024868;28;20072;-74
2024/01/24 02:15:58;;;;;;;18.50;4.20;;;11.10;83.00;;;;;;5038588;28;20053;-72
2024/01/24 02:18:24;;;;;;;15.23;3.80;;;11.10;83.00;;;;;;5044511;28;20049;-73
2024/01/24 02:20:51;;;;;;;20.03;4.37;;;11.10;82.30;;;;;;5026531;28;20110;-72
2024/01/24 02:23:18;;;;;;;20.43;4.20;;;11.10;82.30;;;;;;5029243;28;20075;-72
2024/01/24 02:25:44;;;;;;;23.53;4.60;;;11.10;82.40;;;;;;5039438;28;20053;-76
2024/01/24 02:28:10;;;;;;;19.33;4.17;;;11.10;82.10;;;;;;5038208;28;20057;-73
2024/01/24 02:30:35;;;;;;;16.50;3.77;;;11.10;81.80;;;;;;5044517;28;20575;-73
2024/01/24 02:33:02;;;;;;;14.83;3.90;;;11.10;81.50;;;;;;5047396;28;20136;-73
2024/01/24 02:35:28;;;;;;;18.93;4.53;;;11.00;81.60;;;;;;5026527;28;20369;-73
2024/01/24 02:37:54;;;;;;;17.63;4.23;;;11.00;81.50;;;;;;5047227;28;20045;-74
2024/01/24 02:40:20;;;;;;;21.43;4.37;;;11.00;81.50;;;;;;5046450;28;20590;-74
2024/01/24 02:42:45;;;;;;;22.67;4.70;;;11.00;81.50;;;;;;5016673;28;20497;-73
2024/01/24 02:45:11;;;;;;;20.47;4.27;;;11.00;81.40;;;;;;5044595;28;20165;-71
2024/01/24 02:47:37;;;;;;;19.27;4.17;;;11.00;81.20;;;;;;5043327;28;20107;-73
2024/01/24 02:50:04;;;;;;;16.00;4.00;;;10.90;81.20;;;;;;5044709;28;20049;-74
2024/01/24 02:52:30;;;;;;;21.83;4.73;;;10.90;81.30;;;;;;5045281;28;20195;-73
2024/01/24 02:54:55;;;;;;;20.37;4.83;;;10.90;81.00;;;;;;5027724;28;20041;-73
2024/01/24 02:57:21;;;;;;;17.73;4.63;;;10.90;81.10;;;;;;5045116;28;20118;-73
2024/01/24 02:59:47;;;;;;;23.57;4.80;;;10.80;81.00;;;;;;5026158;28;20060;-74
2024/01/24 03:02:12;;;;;;;23.33;5.37;;;10.80;80.70;;;;;;5044188;28;20104;-72
2024/01/24 03:04:38;;;;;;;20.07;4.53;;;10.80;80.60;;;;;;5043743;28;20320;-73
2024/01/24 03:07:04;;;;;;;22.07;4.53;;;10.70;80.50;;;;;;5044589;28;20463;-73
2024/01/24 03:09:29;;;;;;;21.93;5.20;;;10.60;80.50;;;;;;5034368;28;20088;-73
2024/01/24 03:11:55;;;;;;;23.50;5.07;;;10.60;80.10;;;;;;5034330;28;20049;-74
2024/01/24 03:14:21;;;;;;;18.40;4.93;;;10.50;80.30;;;;;;5043462;28;20455;-72
2024/01/24 03:16:47;;;;;;;25.57;4.97;;;10.50;80.20;;;;;;5044102;28;20349;-72
2024/01/24 03:19:13;;;;;;;25.20;5.60;;;10.40;80.40;;;;;;5027238;28;20064;-73
2024/01/24 03:21:40;;;;;;;29.10;5.67;;;10.40;79.90;;;;;;5025391;28;20053;-73
2024/01/24 03:24:06;;;;;;;30.70;5.67;;;10.40;80.10;;;;;;5026862;28;20079;-73
2024/01/24 03:26:32;;;;;;;25.27;6.00;;;10.30;79.80;;;;;;5040683;28;20065;-72
2024/01/24 03:28:58;;;;;;;28.00;5.57;;;10.30;79.70;;;;;;5043844;28;20053;-72
2024/01/24 03:31:24;;;;;;;27.07;5.20;;;10.30;79.70;;;;;;5043090;28;20057;-72
2024/01/24 03:33:49;;;;;;;26.33;6.13;;;10.20;79.80;;;;;;5045110;28;20508;-73
2024/01/24 03:36:15;;;;;;;25.53;6.00;;;10.20;79.60;;;;;;5040754;28;20132;-73
2024/01/24 03:38:42;;;;;;;25.53;5.93;;;10.20;79.70;;;;;;5043652;28;20048;-75
2024/01/24 03:41:07;;;;;;;26.03;6.13;;;10.20;79.70;;;;;;5043551;28;20041;-73
2024/01/24 03:43:33;;;;;;;25.97;6.07;;;10.20;79.50;;;;;;5032929;28;20056;-72
2024/01/24 03:45:59;;;;;;;36.00;6.77;;;10.20;79.10;;;;;;5044415;28;20226;-73
2024/01/24 03:48:25;;;;;;;28.70;6.53;;;10.30;78.80;;;;;;5041470;28;20389;-73
2024/01/24 03:50:51;;;;;;;33.53;6.57;;;10.30;79.00;;;;;;5022020;28;20127;-72
2024/01/24 03:53:17;;;;;;;24.97;5.80;;;10.30;79.10;;;;;;5041038;28;20171;-74
2024/01/24 03:55:42;;;;;;;31.80;6.07;;;10.20;79.00;;;;;;5040836;28;20057;-73
2024/01/24 03:58:08;;;;;;;29.93;6.97;;;10.30;78.90;;;;;;5042474;28;20061;-74
2024/01/24 04:00:33;;;;;;;29.73;6.40;;;10.30;79.00;;;;;;5040472;28;20056;-72
2024/01/24 04:02:59;;;;;;;32.90;5.80;;;10.30;79.00;;;;;;5022453;28;20045;-74
2024/01/24 04:05:25;;;;;;;31.93;6.37;;;10.30;79.10;;;;;;5024720;28;20052;-73
2024/01/24 04:07:51;;;;;;;31.00;6.80;;;10.20;79.20;;;;;;5044235;28;20049;-72
2024/01/24 04:10:16;;;;;;;28.17;6.40;;;10.20;79.00;;;;;;5043559;28;20044;-73
2024/01/24 04:12:42;;;;;;;28.07;6.93;;;10.20;78.60;;;;;;5025371;28;20053;-72
2024/01/24 04:15:09;;;;;;;31.77;7.13;;;10.20;78.40;;;;;;5027720;28;20072;-72
2024/01/24 04:17:34;;;;;;;34.80;7.77;;;10.20;78.20;;;;;;5022997;28;20053;-73
2024/01/24 04:20:00;;;;;;;30.30;6.90;;;10.20;78.00;;;;;;5024271;28;20060;-72
2024/01/24 04:22:25;;;;;;;29.00;7.00;;;10.20;77.90;;;;;;5005185;28;20050;-74
2024/01/24 04:24:51;;;;;;;35.90;7.33;;;10.20;77.60;;;;;;5031913;28;20045;-73
2024/01/24 04:27:18;;;;;;;34.23;7.13;;;10.20;77.20;;;;;;5013795;28;20575;-73
2024/01/24 04:29:44;;;;;;;34.20;7.43;;;10.20;76.90;;;;;;5034910;28;20056;-74
2024/01/24 04:32:09;;;;;;;34.77;7.53;;;10.20;76.10;;;;;;5025782;28;20052;-71
2024/01/24 04:34:36;;;;;;;32.40;7.20;;;10.20;76.10;;;;;;5043441;28;20037;-72
2024/01/24 04:37:02;;;;;;;32.63;7.63;;;10.20;76.00;;;;;;5025227;28;20057;-72
2024/01/24 04:39:27;;;;;;;37.37;8.83;;;10.20;75.80;;;;;;5016785;28;20264;-75
2024/01/24 04:41:53;;;;;;;40.17;8.87;;;10.20;75.70;;;;;;5025138;28;20045;-73
2024/01/24 04:44:19;;;;;;;43.00;9.13;;;10.10;75.90;;;;;;5044277;28;20144;-72
2024/01/24 04:46:45;;;;;;;35.97;8.47;;;10.10;75.80;;;;;;5024068;28;20127;-73
2024/01/24 04:49:11;;;;;;;41.50;8.87;;;10.10;75.80;;;;;;5043024;28;20126;-72
2024/01/24 04:51:37;;;;;;;44.50;8.87;;;10.00;75.70;;;;;;5024654;28;20040;-73
2024/01/24 04:54:03;;;;;;;39.20;8.37;;;10.00;75.80;;;;;;5009557;28;20049;-72
2024/01/24 04:56:29;;;;;;;41.07;8.63;;;10.00;76.00;;;;;;5041455;28;20048;-73
2024/01/24 04:58:55;;;;;;;43.27;8.60;;;10.00;75.90;;;;;;5044443;28;20411;-72
2024/01/24 05:01:20;;;;;;;40.47;8.70;;;10.00;76.20;;;;;;5031279;28;20453;-73
2024/01/24 05:03:46;;;;;;;45.80;9.13;;;10.00;76.00;;;;;;5024046;28;20122;-72
2024/01/24 05:06:12;;;;;;;42.87;9.40;;;9.90;75.90;;;;;;5042673;28;20053;-71
2024/01/24 05:08:39;;;;;;;40.23;9.37;;;10.00;75.70;;;;;;5042523;28;20065;-71
2024/01/24 05:11:05;;;;;;;41.90;9.77;;;9.90;75.40;;;;;;5025732;28;20041;-71
2024/01/24 05:13:31;;;;;;;44.67;9.47;;;10.00;74.70;;;;;;5035316;28;20231;-73
2024/01/24 05:15:58;;;;;;;43.60;10.10;;;10.00;74.40;;;;;;5045171;28;20048;-73
2024/01/24 05:18:23;;;;;;;49.47;10.20;;;10.00;74.40;;;;;;5048145;28;20052;-71
2024/01/24 05:20:49;;;;;;;41.10;10.57;;;10.00;74.30;;;;;;5046074;28;20408;-72
2024/01/24 05:23:15;;;;;;;52.07;10.47;;;10.00;74.20;;;;;;5028875;28;20055;-73
2024/01/24 05:25:42;;;;;;;45.97;10.30;;;9.90;74.20;;;;;;5044213;28;20060;-72
2024/01/24 05:28:09;;;;;;;49.17;10.13;;;9.90;74.20;;;;;;5023936;28;20523;-71
2024/01/24 05:30:34;;;;;;;49.17;10.70;;;9.80;74.30;;;;;;5023426;28;20183;-72
2024/01/24 05:33:00;;;;;;;52.90;11.73;;;9.80;74.10;;;;;;5028065;28;20190;-73
2024/01/24 05:35:26;;;;;;;51.87;11.30;;;9.80;73.80;;;;;;5030955;28;20053;-74
2024/01/24 05:37:52;;;;;;;56.23;12.00;;;9.80;74.10;;;;;;5046097;28;20051;-73
2024/01/24 05:40:17;;;;;;;48.77;11.03;;;9.80;74.10;;;;;;5039275;28;20041;-72
2024/01/24 05:42:44;;;;;;;46.97;11.60;;;9.70;74.10;;;;;;5039234;28;20103;-73
2024/01/24 05:45:11;;;;;;;50.77;11.43;;;9.70;74.00;;;;;;5041713;28;20055;-72
2024/01/24 05:47:37;;;;;;;49.60;11.43;;;9.60;73.90;;;;;;5038115;28;20516;-73
2024/01/24 05:50:04;;;;;;;50.83;11.37;;;9.60;73.80;;;;;;5026662;28;20205;-71
2024/01/24 05:52:29;;;;;;;56.97;12.43;;;9.60;73.40;;;;;;5023745;28;20788;-73
2024/01/24 05:54:55;;;;;;;46.07;11.83;;;9.60;73.20;;;;;;5043591;28;20056;-71
2024/01/24 05:57:21;;;;;;;59.03;12.63;;;9.60;73.20;;;;;;5040394;28;20056;-71
2024/01/24 05:59:48;;;;;;;57.13;12.20;;;9.50;72.60;;;;;;5019659;28;20585;-73
2024/01/24 06:02:14;;;;;;;49.37;11.20;;;9.50;72.70;;;;;;5043619;28;20095;-71
2024/01/24 06:04:39;;;;;;;51.47;11.90;;;9.50;72.50;;;;;;5046710;28;20065;-72
2024/01/24 06:07:06;;;;;;;56.07;12.50;;;9.50;72.10;;;;;;5024561;28;20041;-72
2024/01/24 06:09:32;;;;;;;56.57;12.20;;;9.60;71.60;;;;;;5046188;28;20072;-71
2024/01/24 06:11:58;;;;;;;56.33;11.97;;;9.60;71.30;;;;;;5027178;28;20572;-72
2024/01/24 06:14:24;;;;;;;49.97;11.93;;;9.60;70.90;;;;;;5043699;28;20056;-71
2024/01/24 06:16:50;;;;;;;45.57;11.60;;;9.50;71.20;;;;;;5043575;28;20508;-73
2024/01/24 06:19:15;;;;;;;51.33;11.70;;;9.50;71.40;;;;;;5041158;28;20135;-72
2024/01/24 06:21:41;;;;;;;53.20;12.70;;;9.50;71.60;;;;;;5042567;28;20048;-72
2024/01/24 06:24:07;;;;;;;52.90;13.17;;;9.40;71.60;;;;;;5041796;28;20849;-72
2024/01/24 06:26:33;;;;;;;57.10;11.73;;;9.40;71.10;;;;;;5021982;28;20056;-72
2024/01/24 06:28:59;;;;;;;51.60;12.07;;;9.40;71.50;;;;;;5021925;28;20048;-72
2024/01/24 06:31:25;;;;;;;49.77;12.40;;;9.40;71.90;;;;;;5024896;28;20083;-71
2024/01/24 06:33:50;;;;;;;59.17;13.37;;;9.40;72.10;;;;;;5044491;28;20041;-73
2024/01/24 06:36:16;;;;;;;59.87;13.20;;;9.30;72.30;;;;;;5037216;28;20045;-72
2024/01/24 06:38:42;;;;;;;55.67;13.33;;;9.20;72.30;;;;;;5024559;28;20037;-71
2024/01/24 06:41:08;;;;;;;65.37;14.47;;;9.20;72.20;;;;;;5044784;28;20360;-72
2024/01/24 06:43:35;;;;;;;61.53;13.90;;;9.20;72.20;;;;;;5044748;28;20049;-71
2024/01/24 06:46:02;;;;;;;59.73;13.73;;;9.20;72.20;;;;;;5023929;28;20037;-72
2024/01/24 06:48:28;;;;;;;53.13;11.90;;;9.20;72.10;;;;;;5027057;28;20080;-72
2024/01/24 06:50:54;;;;;;;50.97;12.13;;;9.10;71.90;;;;;;5036025;28;20576;-72
2024/01/24 06:53:20;;;;;;;56.83;12.27;;;9.10;71.40;;;;;;5041279;28;20044;-72
2024/01/24 06:55:46;;;;;;;57.97;12.40;;;9.00;71.60;;;;;;5033690;28;20407;-71
2024/01/24 06:58:12;;;;;;;50.13;12.93;;;9.00;71.10;;;;;;5017516;28;20095;-73
2024/01/24 07:00:38;;;;;;;53.63;13.07;;;9.00;70.90;;;;;;5042660;28;20127;-72
2024/01/24 07:03:04;;;;;;;53.77;12.67;;;9.00;71.20;;;;;;5029479;28;20041;-72
2024/01/24 07:05:30;;;;;;;66.13;13.67;;;9.00;71.00;;;;;;5018233;28;20056;-71
2024/01/24 07:07:57;;;;;;;51.87;12.73;;;9.00;70.50;;;;;;5032592;28;20057;-71
2024/01/24 07:10:23;;;;;;;58.27;13.90;;;9.00;70.60;;;;;;5027776;28;20057;-72
2024/01/24 07:12:49;;;;;;;52.77;12.70;;;9.00;70.30;;;;;;5037214;28;20072;-72
2024/01/24 07:15:18;;;;;;;54.83;13.10;;;9.00;70.10;;;;;;5035678;28;20130;-72
2024/01/24 07:17:45;;;;;;;60.03;12.83;;;9.00;70.30;;;;;;5019162;28;20543;-72
2024/01/24 07:20:11;;;;;;;52.40;12.40;;;9.00;70.20;;;;;;5036530;28;20435;-72
2024/01/24 07:22:38;;;;;;;53.50;12.40;;;9.00;70.40;;;;;;5042824;28;20060;-72
2024/01/24 07:25:07;;;;;;;44.80;12.77;;;9.00;70.20;;;;;;5042662;28;20049;-72
2024/01/24 07:27:33;;;;;;;51.37;12.90;;;9.00;70.30;;;;;;5023461;28;20036;-72
2024/01/24 07:29:59;;;;;;;56.87;12.77;;;9.00;70.20;;;;;;5030098;28;20052;-71
2024/01/24 07:32:24;;;;;;;53.40;12.73;;;9.00;70.30;;;;;;5038815;28;20057;-73
2024/01/24 07:34:50;;;;;;;56.83;13.07;;;9.00;70.20;;;;;;5040891;28;20115;-72
2024/01/24 07:37:16;;;;;;;59.50;12.37;;;8.90;70.30;;;;;;5021297;28;20083;-71
2024/01/24 07:39:41;;;;;;;57.90;13.20;;;9.00;70.30;;;;;;5033893;28;20045;-71
2024/01/24 07:42:07;;;;;;;45.83;11.70;;;8.90;70.40;;;;;;5040379;28;20144;-71
2024/01/24 07:44:33;;;;;;;48.30;12.20;;;9.00;70.50;;;;;;5042297;28;20048;-71
2024/01/24 07:46:59;;;;;;;57.13;12.07;;;9.00;70.40;;;;;;5022713;28;20471;-73
2024/01/24 07:49:24;;;;;;;55.73;12.23;;;9.00;70.40;;;;;;5039065;28;20072;-72
2024/01/24 07:51:50;;;;;;;54.33;13.00;;;8.90;70.80;;;;;;5024686;28;20114;-72
2024/01/24 07:54:17;;;;;;;60.17;12.60;;;8.90;70.90;;;;;;5043630;28;20059;-72
2024/01/24 07:56:44;;;;;;;58.63;12.53;;;8.90;71.10;;;;;;5042245;28;20402;-71
2024/01/24 07:59:12;;;;;;;68.40;13.63;;;8.90;71.30;;;;;;5043662;28;20053;-71
2024/01/24 08:01:37;;;;;;;61.73;13.07;;;9.00;71.20;;;;;;5041129;28;20184;-71
2024/01/24 08:04:03;;;;;;;53.43;12.57;;;8.90;71.60;;;;;;5043900;28;20127;-72
2024/01/24 08:06:29;;;;;;;52.73;11.60;;;8.90;71.60;;;;;;5041993;28;20057;-75
2024/01/24 08:08:54;;;;;;;60.53;12.80;;;8.90;71.70;;;;;;5044935;28;20048;-72
2024/01/24 08:11:22;;;;;;;57.67;12.20;;;8.90;71.90;;;;;;5042373;28;20341;-72
2024/01/24 08:13:48;;;;;;;58.67;13.27;;;8.90;71.90;;;;;;5045131;28;20500;-71
2024/01/24 08:16:14;;;;;;;53.63;12.63;;;8.90;71.80;;;;;;5038128;28;20051;-71
2024/01/24 08:18:40;;;;;;;59.53;13.23;;;8.90;72.00;;;;;;5025000;28;20098;-73
2024/01/24 08:21:06;;;;;;;57.13;12.93;;;8.90;71.80;;;;;;5027155;28;20057;-74
2024/01/24 08:23:32;;;;;;;55.90;12.53;;;8.90;72.00;;;;;;5012831;28;20072;-73
2024/01/24 08:25:57;;;;;;;52.90;12.13;;;8.90;71.90;;;;;;5009908;28;20076;-72
2024/01/24 08:28:23;;;;;;;59.03;13.93;;;8.90;71.90;;;;;;5017535;28;20112;-70
2024/01/24 08:30:49;;;;;;;52.33;13.20;;;8.80;71.80;;;;;;5021421;28;20175;-71
2024/01/24 08:33:15;;;;;;;55.83;12.80;;;8.80;71.60;;;;;;5009732;28;20087;-72
2024/01/24 08:35:41;;;;;;;49.33;12.50;;;8.90;71.60;;;;;;5025754;28;20053;-72
2024/01/24 08:38:07;;;;;;;50.40;11.77;;;9.00;71.50;;;;;;5028714;28;20052;-73
2024/01/24 08:40:33;;;;;;;55.97;12.77;;;9.00;71.50;;;;;;5007581;28;20909;-72
2024/01/24 08:42:58;;;;;;;50.27;12.87;;;9.00;71.30;;;;;;5028431;28;20609;-71
2024/01/24 08:45:24;;;;;;;59.47;12.47;;;9.00;71.10;;;;;;5026787;28;20056;-73
2024/01/24 08:47:50;;;;;;;53.73;13.43;;;9.00;71.20;;;;;;5013265;28;20049;-73
2024/01/24 08:50:16;;;;;;;56.57;13.17;;;9.00;71.40;;;;;;5029758;28;20429;-72
2024/01/24 08:52:42;;;;;;;58.37;13.87;;;9.00;71.20;;;;;;5031468;28;20080;-73
2024/01/24 08:55:08;;;;;;;52.33;12.73;;;9.00;71.20;;;;;;5032293;28;20044;-72
2024/01/24 08:57:34;;;;;;;55.07;13.17;;;9.00;71.30;;;;;;5013198;28;20057;-71
2024/01/24 08:59:59;;;;;;;61.50;13.30;;;9.00;71.30;;;;;;4997075;28;20037;-70
2024/01/24 09:02:26;;;;;;;58.50;12.13;;;9.00;71.20;;;;;;4995350;28;20126;-72
2024/01/24 09:04:52;;;;;;;56.00;12.27;;;9.00;71.10;;;;;;5031296;28;20053;-73
2024/01/24 09:07:20;;;;;;;57.43;13.67;;;9.00;71.10;;;;;;5016349;28;20495;-72
2024/01/24 09:09:51;;;;;;;58.83;13.37;;;9.20;70.90;;;;;;5030292;28;20515;-72
2024/01/24 09:12:17;;;;;;;58.35;12.38;;;9.20;70.60;;;;;;5013760;28;20163;-73
2024/01/24 09:14:44;;;;;;;55.53;12.60;;;9.20;70.80;;;;;;5013460;28;20631;-72
2024/01/24 09:17:13;;;;;;;53.10;12.73;;;9.20;70.90;;;;;;5030230;28;20076;-72
2024/01/24 09:19:42;;;;;;;53.17;12.40;;;9.20;70.90;;;;;;5031442;28;20079;-73
2024/01/24 09:22:09;;;;;;;53.33;13.50;;;9.20;70.90;;;;;;5029879;28;20480;-73
2024/01/24 09:24:36;;;;;;;58.00;13.77;;;9.20;70.80;;;;;;5030657;28;20049;-72
2024/01/24 09:27:03;;;;;;;52.50;12.87;;;9.20;70.70;;;;;;5012474;28;20063;-72
2024/01/24 09:29:28;;;;;;;57.90;12.63;;;9.20;70.80;;;;;;5012086;28;20104;-73
2024/01/24 09:31:54;;;;;;;54.93;12.90;;;9.20;71.10;;;;;;5031498;28;20543;-71
2024/01/24 09:34:20;;;;;;;55.07;12.03;;;9.20;70.80;;;;;;5030795;28;20044;-72
2024/01/24 09:36:47;;;;;;;57.47;12.87;;;9.20;70.50;;;;;;5011883;28;20049;-73
2024/01/24 09:39:12;;;;;;;47.97;12.50;;;9.20;70.60;;;;;;5029570;28;20188;-74
2024/01/24 09:41:40;;;;;;;53.37;13.20;;;9.30;70.40;;;;;;5028393;28;20052;-73
2024/01/24 09:44:08;;;;;;;57.30;12.87;;;9.30;70.50;;;;;;5011213;28;20357;-74
2024/01/24 09:46:37;;;;;;;52.70;12.47;;;9.40;70.50;;;;;;5010590;28;20045;-73
2024/01/24 09:49:05;;;;;;;52.97;12.53;;;9.40;70.40;;;;;;5010769;28;20866;-73
2024/01/24 09:51:34;;;;;;;53.80;11.93;;;9.40;70.40;;;;;;5027628;28;20568;-73
2024/01/24 09:54:05;;;;;;;51.43;12.23;;;9.40;70.50;;;;;;5014461;28;20449;-73
2024/01/24 09:56:35;;;;;;;44.58;10.13;;;9.50;70.30;;;;;;5030184;28;20061;-74
2024/01/24 09:59:08;;;;;;;51.57;11.33;;;9.50;70.40;;;;;;5013065;28;20471;-73
2024/01/24 10:01:37;;;;;;;54.93;13.63;;;9.50;69.90;;;;;;5027978;28;20045;-73
2024/01/24 10:04:03;;;;;;;60.27;13.57;;;9.60;69.90;;;;;;5028397;28;20057;-73
2024/01/24 10:06:29;;;;;;;59.40;13.77;;;9.70;70.30;;;;;;5029733;28;20041;-73
2024/01/24 10:08:56;;;;;;;56.43;13.23;;;9.80;69.50;;;;;;5031148;28;20055;-73
2024/01/24 10:11:22;;;;;;;59.83;13.30;;;9.90;69.60;;;;;;5009717;28;20059;-73
2024/01/24 10:13:48;;;;;;;57.93;12.43;;;9.90;70.00;;;;;;5028308;28;20090;-73
2024/01/24 10:16:14;;;;;;;62.77;13.97;;;10.00;69.70;;;;;;5027407;28;20057;-74
2024/01/24 10:18:41;;;;;;;54.20;12.50;;;10.00;69.10;;;;;;5025133;28;20764;-73
2024/01/24 10:21:07;;;;;;;54.93;12.83;;;10.00;69.60;;;;;;5027337;28;20504;-74
2024/01/24 10:23:33;;;;;;;49.77;12.40;;;10.10;69.20;;;;;;5028731;28;20145;-73
2024/01/24 10:25:59;;;;;;;55.63;13.00;;;10.20;69.60;;;;;;5027314;28;20122;-73
2024/01/24 10:28:25;;;;;;;54.13;12.60;;;10.20;69.30;;;;;;5011140;28;20071;-72
2024/01/24 10:30:51;;;;;;;48.37;12.93;;;10.20;68.90;;;;;;5027129;28;20048;-72
2024/01/24 10:33:17;;;;;;;53.37;12.70;;;10.10;68.90;;;;;;5029211;28;20071;-74
2024/01/24 10:35:43;;;;;;;61.77;13.43;;;10.10;69.30;;;;;;5010257;28;20700;-73
2024/01/24 10:38:12;;;;;;;52.73;12.57;;;10.10;69.20;;;;;;5028272;28;20064;-73
2024/01/24 10:40:41;;;;;;;49.57;12.20;;;10.10;69.00;;;;;;5024766;28;20078;-72
2024/01/24 10:43:12;;;;;;;54.67;12.17;;;10.20;68.90;;;;;;5011542;28;20048;-71
2024/01/24 10:45:44;;;;;;;49.03;12.15;;;10.20;68.70;;;;;;5010750;28;20048;-71
2024/01/24 10:48:11;;;;;;;54.88;13.55;;;10.20;68.70;;;;;;5028662;28;20064;-74
2024/01/24 10:50:38;;;;;;;48.63;12.23;;;10.00;69.00;;;;;;5008623;28;20060;-73
2024/01/24 10:53:04;;;;;;;55.33;12.20;;;10.00;69.30;;;;;;5027526;28;20049;-72
2024/01/24 10:55:31;;;;;;;53.20;12.00;;;9.90;69.50;;;;;;5027363;28;20654;-73
2024/01/24 10:57:57;;;;;;;47.73;11.60;;;10.00;69.20;;;;;;4992364;28;20052;-74
2024/01/24 11:00:25;;;;;;;53.00;11.30;;;10.10;68.70;;;;;;5008471;28;20057;-72
2024/01/24 11:02:54;;;;;;;44.27;12.17;;;10.20;68.70;;;;;;5010661;28;20045;-72
2024/01/24 11:05:27;;;;;;;43.00;12.13;;;10.20;68.30;;;;;;5010782;28;20061;-72
2024/01/24 11:08:23;;;;;;;46.77;11.67;;;10.10;68.20;;;;;;5029791;28;20107;-74
2024/01/24 11:10:51;;;;;;;45.47;11.20;;;10.30;68.20;;;;;;5028451;28;20047;-71
2024/01/24 11:13:18;;;;;;;49.57;11.70;;;10.30;68.30;;;;;;5029274;28;20151;-73
2024/01/24 11:15:46;;;;;;;52.20;11.43;;;10.20;68.00;;;;;;4993278;28;20083;-72
2024/01/24 11:18:21;;;;;;;51.57;12.13;;;10.10;68.40;;;;;;5029074;28;20045;-72
2024/01/24 11:20:53;;;;;;;51.57;11.07;;;10.10;68.10;;;;;;5027888;28;20045;-73
2024/01/24 11:23:44;;;;;;;44.60;10.90;;;10.10;68.20;;;;;;5011453;28;21312;-73
2024/01/24 11:26:16;;;;;;;48.63;10.93;;;10.00;68.10;;;;;;5013774;28;20049;-72
2024/01/24 11:28:42;;;;;;;44.50;10.93;;;9.90;68.60;;;;;;5027392;28;20037;-72
2024/01/24 11:31:09;;;;;;;46.40;11.40;;;9.90;68.40;;;;;;5008831;28;20538;-72
2024/01/24 11:33:35;;;;;;;46.83;10.67;;;9.80;68.00;;;;;;5029842;28;20053;-72
2024/01/24 11:36:03;;;;;;;49.23;9.93;;;9.80;68.50;;;;;;4999878;28;20048;-73
2024/01/24 11:38:29;;;;;;;42.90;10.27;;;9.80;68.20;;;;;;5026004;28;20076;-72
2024/01/24 11:41:22;;;;;;;47.37;11.00;;;9.70;68.50;;;;;;5024887;28;20153;-72
2024/01/24 11:43:48;;;;;;;47.77;9.87;;;9.70;68.60;;;;;;5027753;28;20080;-72
2024/01/24 11:46:14;;;;;;;48.17;10.87;;;9.70;68.60;;;;;;5024419;28;20428;-71
2024/01/24 11:48:40;;;;;;;44.20;11.00;;;9.60;68.70;;;;;;5022941;28;20045;-73
2024/01/24 11:51:08;;;;;;;45.40;11.10;;;9.60;69.20;;;;;;4991012;28;20385;-72
2024/01/24 11:53:34;;;;;;;49.93;11.30;;;9.50;68.90;;;;;;5023878;28;20057;-72
2024/01/24 11:56:04;;;;;;;44.67;11.33;;;9.60;69.20;;;;;;5004903;28;20079;-73
2024/01/24 11:58:30;;;;;;;51.70;10.60;;;9.70;68.60;;;;;;5013652;28;20084;-74
2024/01/24 12:01:05;;;;;;;53.13;11.40;;;9.70;68.70;;;;;;5022885;28;20601;-73
2024/01/24 12:03:31;;;;;;;46.57;10.33;;;9.70;68.50;;;;;;5009281;28;20059;-72
2024/01/24 12:05:58;;;;;;;51.10;10.83;;;10.00;68.20;;;;;;5022814;28;20917;-71
2024/01/24 12:08:24;;;;;;;57.83;11.87;;;10.10;68.20;;;;;;5006925;28;20504;-72
2024/01/24 12:10:50;;;;;;;50.17;11.67;;;10.00;68.10;;;;;;5007551;28;20103;-71
2024/01/24 12:13:17;;;;;;;50.40;11.23;;;9.90;68.40;;;;;;5024089;28;20126;-72
2024/01/24 12:15:44;;;;;;;50.83;11.50;;;9.80;68.20;;;;;;5020967;28;20488;-72
2024/01/24 12:18:13;;;;;;;44.97;11.20;;;9.80;68.30;;;;;;5025337;28;20053;-72
2024/01/24 12:20:44;;;;;;;53.03;12.00;;;9.80;68.10;;;;;;5023314;28;20404;-71
2024/01/24 12:23:10;;;;;;;49.67;11.98;;;9.70;68.40;;;;;;5027112;28;20045;-73
2024/01/24 12:25:36;;;;;;;46.17;10.30;;;9.60;68.50;;;;;;4970847;28;20125;-74
2024/01/24 12:28:02;;;;;;;50.57;11.83;;;9.60;68.90;;;;;;5007182;28;20807;-72
2024/01/24 12:30:34;;;;;;;52.63;11.27;;;9.70;68.40;;;;;;5025189;28;20049;-73
2024/01/24 12:33:01;;;;;;;47.27;10.60;;;9.70;68.60;;;;;;5024618;28;20446;-73